sensor_id;sensor_type;location;lat;lon;timestamp;temperature;humidity
22153;DHT22;11242;50.536;12.688;2022-10-22T00:01:14;12.10;99.90
22153;DHT22;11242;50.536;12.688;2022-10-22T00:03:40;12.00;99.90
22153;DHT22;11242;50.536;12.688;2022-10-22T00:06:06;12.00;99.90
22153;DHT22;11242;50.536;12.688;2022-10-22T00:08:32;12.10;99.90
22153;DHT22;11242;50.536;12.688;2022-10-22T00:10:58;12.10;99.90
22153;DHT22;11242;50.536;12.688;2022-10-22T00:13:23;12.10;99.90
22153;DHT22;11242;50.536;12.688;2022-10-22T00:15:49;12.00;99.90
22153;DHT22;11242;50.536;12.688;2022-10-22T00:18:15;12.10;99.90
22153;DHT22;11242;50.536;12.688;2022-10-22T00:20:40;12.10;99.90
22153;DHT22;11242;50.536;12.688;2022-10-22T00:23:06;12.10;99.90
22153;DHT22;11242;50.536;12.688;2022-10-22T00:25:34;12.30;99.90
22153;DHT22;11242;50.536;12.688;2022-10-22T00:28:00;12.40;99.90
22153;DHT22;11242;50.536;12.688;2022-10-22T00:30:26;12.40;99.90
22153;DHT22;11242;50.536;12.688;2022-10-22T00:32:53;12.40;99.90
22153;DHT22;11242;50.536;12.688;2022-10-22T00:35:19;12.40;99.90
22153;DHT22;11242;50.536;12.688;2022-10-22T00:37:44;12.40;99.90
22153;DHT22;11242;50.536;12.688;2022-10-22T00:40:11;12.40;99.90
22153;DHT22;11242;50.536;12.688;2022-10-22T00:42:37;12.40;99.90
22153;DHT22;11242;50.536;12.688;2022-10-22T00:47:49;12.30;99.90
22153;DHT22;11242;50.536;12.688;2022-10-22T00:50:23;12.40;99.90
22153;DHT22;11242;50.536;12.688;2022-10-22T00:52:49;12.40;99.90
22153;DHT22;11242;50.536;12.688;2022-10-22T00:55:16;12.40;99.90
22153;DHT22;11242;50.536;12.688;2022-10-22T00:57:42;12.40;99.90
22153;DHT22;11242;50.536;12.688;2022-10-22T01:00:09;12.40;99.90
22153;DHT22;11242;50.536;12.688;2022-10-22T01:02:35;12.40;99.90
22153;DHT22;11242;50.536;12.688;2022-10-22T01:05:01;12.40;99.90
22153;DHT22;11242;50.536;12.688;2022-10-22T01:07:27;12.40;99.90
22153;DHT22;11242;50.536;12.688;2022-10-22T01:15:06;12.40;99.90
22153;DHT22;11242;50.536;12.688;2022-10-22T01:17:44;12.40;99.90
22153;DHT22;11242;50.536;12.688;2022-10-22T01:28:53;12.50;99.90
22153;DHT22;11242;50.536;12.688;2022-10-22T01:31:22;12.40;99.90
22153;DHT22;11242;50.536;12.688;2022-10-22T01:33:49;12.40;99.90
22153;DHT22;11242;50.536;12.688;2022-10-22T01:36:17;12.40;99.90
22153;DHT22;11242;50.536;12.688;2022-10-22T01:38:44;12.30;99.90
22153;DHT22;11242;50.536;12.688;2022-10-22T01:41:10;12.30;99.90
22153;DHT22;11242;50.536;12.688;2022-10-22T01:43:36;12.30;99.90
22153;DHT22;11242;50.536;12.688;2022-10-22T01:46:04;12.20;99.90
22153;DHT22;11242;50.536;12.688;2022-10-22T01:54:51;12.20;99.90
22153;DHT22;11242;50.536;12.688;2022-10-22T01:57:43;12.20;99.90
22153;DHT22;11242;50.536;12.688;2022-10-22T02:00:16;12.20;99.90
22153;DHT22;11242;50.536;12.688;2022-10-22T02:03:05;12.10;99.90
22153;DHT22;11242;50.536;12.688;2022-10-22T02:05:43;12.10;99.90
22153;DHT22;11242;50.536;12.688;2022-10-22T02:08:16;12.10;99.90
22153;DHT22;11242;50.536;12.688;2022-10-22T02:10:45;12.10;99.90
22153;DHT22;11242;50.536;12.688;2022-10-22T02:13:18;12.00;99.90
22153;DHT22;11242;50.536;12.688;2022-10-22T02:15:49;11.90;99.90
22153;DHT22;11242;50.536;12.688;2022-10-22T02:18:17;11.80;99.90
22153;DHT22;11242;50.536;12.688;2022-10-22T02:20:44;11.80;99.90
22153;DHT22;11242;50.536;12.688;2022-10-22T02:23:10;11.70;99.90
22153;DHT22;11242;50.536;12.688;2022-10-22T02:25:39;11.70;99.90
22153;DHT22;11242;50.536;12.688;2022-10-22T02:28:18;11.60;99.90
22153;DHT22;11242;50.536;12.688;2022-10-22T02:30:52;11.60;99.90
22153;DHT22;11242;50.536;12.688;2022-10-22T02:33:23;11.60;99.90
22153;DHT22;11242;50.536;12.688;2022-10-22T02:35:51;11.60;99.90
22153;DHT22;11242;50.536;12.688;2022-10-22T02:38:18;11.50;99.90
22153;DHT22;11242;50.536;12.688;2022-10-22T02:40:44;11.50;99.90
22153;DHT22;11242;50.536;12.688;2022-10-22T02:43:10;11.50;99.90
22153;DHT22;11242;50.536;12.688;2022-10-22T02:45:35;11.40;99.90
22153;DHT22;11242;50.536;12.688;2022-10-22T02:48:01;11.40;99.90
22153;DHT22;11242;50.536;12.688;2022-10-22T02:50:27;11.40;99.90
22153;DHT22;11242;50.536;12.688;2022-10-22T02:52:53;11.40;99.90
22153;DHT22;11242;50.536;12.688;2022-10-22T02:55:19;11.30;99.90
22153;DHT22;11242;50.536;12.688;2022-10-22T02:57:44;11.30;99.90
22153;DHT22;11242;50.536;12.688;2022-10-22T03:00:10;11.20;99.90
22153;DHT22;11242;50.536;12.688;2022-10-22T03:02:37;11.20;99.90
22153;DHT22;11242;50.536;12.688;2022-10-22T03:05:03;11.20;99.90
22153;DHT22;11242;50.536;12.688;2022-10-22T03:07:28;11.20;99.90
22153;DHT22;11242;50.536;12.688;2022-10-22T03:09:54;11.20;99.90
22153;DHT22;11242;50.536;12.688;2022-10-22T03:12:20;11.20;99.90
22153;DHT22;11242;50.536;12.688;2022-10-22T03:14:45;11.20;99.90
22153;DHT22;11242;50.536;12.688;2022-10-22T03:17:11;11.20;99.90
22153;DHT22;11242;50.536;12.688;2022-10-22T03:19:36;11.20;99.90
22153;DHT22;11242;50.536;12.688;2022-10-22T03:22:05;11.10;99.90
22153;DHT22;11242;50.536;12.688;2022-10-22T03:24:44;11.10;99.90
22153;DHT22;11242;50.536;12.688;2022-10-22T03:27:12;11.10;99.90
22153;DHT22;11242;50.536;12.688;2022-10-22T03:29:39;11.10;99.90
22153;DHT22;11242;50.536;12.688;2022-10-22T03:32:06;11.10;99.90
22153;DHT22;11242;50.536;12.688;2022-10-22T03:34:31;11.10;99.90
22153;DHT22;11242;50.536;12.688;2022-10-22T03:36:58;11.10;99.90
22153;DHT22;11242;50.536;12.688;2022-10-22T03:39:26;11.10;99.90
22153;DHT22;11242;50.536;12.688;2022-10-22T03:41:53;11.10;99.90
22153;DHT22;11242;50.536;12.688;2022-10-22T03:44:19;11.10;99.90
22153;DHT22;11242;50.536;12.688;2022-10-22T03:46:46;11.10;99.90
22153;DHT22;11242;50.536;12.688;2022-10-22T03:49:11;11.20;99.90
22153;DHT22;11242;50.536;12.688;2022-10-22T03:51:37;11.10;99.90
22153;DHT22;11242;50.536;12.688;2022-10-22T03:54:03;11.20;99.90
22153;DHT22;11242;50.536;12.688;2022-10-22T03:56:29;11.20;99.90
22153;DHT22;11242;50.536;12.688;2022-10-22T03:58:55;11.30;99.90
22153;DHT22;11242;50.536;12.688;2022-10-22T04:01:22;11.30;99.90
22153;DHT22;11242;50.536;12.688;2022-10-22T04:03:48;11.30;99.90
22153;DHT22;11242;50.536;12.688;2022-10-22T04:06:14;11.40;99.90
22153;DHT22;11242;50.536;12.688;2022-10-22T04:08:41;11.50;99.90
22153;DHT22;11242;50.536;12.688;2022-10-22T04:11:07;11.60;99.90
22153;DHT22;11242;50.536;12.688;2022-10-22T04:13:33;11.60;99.90
22153;DHT22;11242;50.536;12.688;2022-10-22T04:16:10;11.70;99.90
22153;DHT22;11242;50.536;12.688;2022-10-22T04:18:36;11.80;99.90
22153;DHT22;11242;50.536;12.688;2022-10-22T04:21:03;12.00;99.90
22153;DHT22;11242;50.536;12.688;2022-10-22T04:23:28;12.00;99.90
22153;DHT22;11242;50.536;12.688;2022-10-22T04:26:03;12.00;99.90
22153;DHT22;11242;50.536;12.688;2022-10-22T04:28:29;12.20;99.90
22153;DHT22;11242;50.536;12.688;2022-10-22T04:30:54;12.30;99.90
22153;DHT22;11242;50.536;12.688;2022-10-22T04:33:20;12.40;99.90
22153;DHT22;11242;50.536;12.688;2022-10-22T04:35:46;12.40;99.90
22153;DHT22;11242;50.536;12.688;2022-10-22T04:38:12;12.50;99.90
22153;DHT22;11242;50.536;12.688;2022-10-22T04:40:38;12.50;99.90
22153;DHT22;11242;50.536;12.688;2022-10-22T04:43:04;12.60;99.90
22153;DHT22;11242;50.536;12.688;2022-10-22T04:45:31;12.60;99.90
22153;DHT22;11242;50.536;12.688;2022-10-22T04:47:56;12.70;99.90
22153;DHT22;11242;50.536;12.688;2022-10-22T04:50:22;12.70;99.90
22153;DHT22;11242;50.536;12.688;2022-10-22T04:52:47;12.70;99.90
22153;DHT22;11242;50.536;12.688;2022-10-22T04:55:13;12.70;99.90
22153;DHT22;11242;50.536;12.688;2022-10-22T04:57:38;12.70;99.90
22153;DHT22;11242;50.536;12.688;2022-10-22T05:00:05;12.80;99.90
22153;DHT22;11242;50.536;12.688;2022-10-22T05:02:31;12.80;99.90
22153;DHT22;11242;50.536;12.688;2022-10-22T05:04:56;12.90;99.90
22153;DHT22;11242;50.536;12.688;2022-10-22T05:07:22;12.80;99.90
22153;DHT22;11242;50.536;12.688;2022-10-22T05:09:48;12.70;99.90
22153;DHT22;11242;50.536;12.688;2022-10-22T05:12:14;12.70;99.90
22153;DHT22;11242;50.536;12.688;2022-10-22T05:14:39;12.70;99.90
22153;DHT22;11242;50.536;12.688;2022-10-22T05:17:05;12.70;99.90
22153;DHT22;11242;50.536;12.688;2022-10-22T05:19:31;12.80;99.90
22153;DHT22;11242;50.536;12.688;2022-10-22T05:21:59;12.80;99.90
22153;DHT22;11242;50.536;12.688;2022-10-22T05:24:26;12.80;99.90
22153;DHT22;11242;50.536;12.688;2022-10-22T05:26:53;12.90;99.90
22153;DHT22;11242;50.536;12.688;2022-10-22T05:29:20;12.90;99.90
22153;DHT22;11242;50.536;12.688;2022-10-22T05:31:46;12.90;99.90
22153;DHT22;11242;50.536;12.688;2022-10-22T05:34:11;12.90;99.90
22153;DHT22;11242;50.536;12.688;2022-10-22T05:36:37;12.90;99.90
22153;DHT22;11242;50.536;12.688;2022-10-22T05:39:03;12.80;99.90
22153;DHT22;11242;50.536;12.688;2022-10-22T05:41:28;12.80;99.90
22153;DHT22;11242;50.536;12.688;2022-10-22T05:43:58;12.80;99.90
22153;DHT22;11242;50.536;12.688;2022-10-22T05:46:26;12.80;99.90
22153;DHT22;11242;50.536;12.688;2022-10-22T05:48:57;12.80;99.90
22153;DHT22;11242;50.536;12.688;2022-10-22T05:51:25;12.80;99.90
22153;DHT22;11242;50.536;12.688;2022-10-22T05:53:53;12.70;99.90
22153;DHT22;11242;50.536;12.688;2022-10-22T05:56:19;12.70;99.90
22153;DHT22;11242;50.536;12.688;2022-10-22T05:58:46;12.70;99.90
22153;DHT22;11242;50.536;12.688;2022-10-22T06:01:13;12.70;99.90
22153;DHT22;11242;50.536;12.688;2022-10-22T06:03:39;12.70;99.90
22153;DHT22;11242;50.536;12.688;2022-10-22T06:06:16;12.70;99.90
22153;DHT22;11242;50.536;12.688;2022-10-22T06:08:43;12.70;99.90
22153;DHT22;11242;50.536;12.688;2022-10-22T06:11:09;12.70;99.90
22153;DHT22;11242;50.536;12.688;2022-10-22T06:13:34;12.70;99.90
22153;DHT22;11242;50.536;12.688;2022-10-22T06:16:00;12.70;99.90
22153;DHT22;11242;50.536;12.688;2022-10-22T06:18:25;12.70;99.90
22153;DHT22;11242;50.536;12.688;2022-10-22T06:20:51;12.60;99.90
22153;DHT22;11242;50.536;12.688;2022-10-22T06:23:16;12.60;99.90
22153;DHT22;11242;50.536;12.688;2022-10-22T06:25:42;12.60;99.90
22153;DHT22;11242;50.536;12.688;2022-10-22T06:28:08;12.70;99.90
22153;DHT22;11242;50.536;12.688;2022-10-22T06:30:36;12.60;99.90
22153;DHT22;11242;50.536;12.688;2022-10-22T06:33:02;12.60;99.90
22153;DHT22;11242;50.536;12.688;2022-10-22T06:35:27;12.50;99.90
22153;DHT22;11242;50.536;12.688;2022-10-22T06:37:53;12.50;99.90
22153;DHT22;11242;50.536;12.688;2022-10-22T06:40:18;12.50;99.90
22153;DHT22;11242;50.536;12.688;2022-10-22T06:42:44;12.50;99.90
22153;DHT22;11242;50.536;12.688;2022-10-22T06:45:10;12.50;99.90
22153;DHT22;11242;50.536;12.688;2022-10-22T06:47:35;12.40;99.90
22153;DHT22;11242;50.536;12.688;2022-10-22T06:50:01;12.40;99.90
22153;DHT22;11242;50.536;12.688;2022-10-22T06:52:27;12.40;99.90
22153;DHT22;11242;50.536;12.688;2022-10-22T06:54:52;12.40;99.90
22153;DHT22;11242;50.536;12.688;2022-10-22T06:57:18;12.40;99.90
22153;DHT22;11242;50.536;12.688;2022-10-22T06:59:44;12.30;99.90
22153;DHT22;11242;50.536;12.688;2022-10-22T07:02:10;12.30;99.90
22153;DHT22;11242;50.536;12.688;2022-10-22T07:04:35;12.30;99.90
22153;DHT22;11242;50.536;12.688;2022-10-22T07:07:01;12.30;99.90
22153;DHT22;11242;50.536;12.688;2022-10-22T07:09:27;12.30;99.90
22153;DHT22;11242;50.536;12.688;2022-10-22T07:11:52;12.30;99.90
22153;DHT22;11242;50.536;12.688;2022-10-22T07:14:18;12.30;99.90
22153;DHT22;11242;50.536;12.688;2022-10-22T07:16:43;12.30;99.90
22153;DHT22;11242;50.536;12.688;2022-10-22T07:19:11;12.30;99.90
22153;DHT22;11242;50.536;12.688;2022-10-22T07:21:37;12.30;99.90
22153;DHT22;11242;50.536;12.688;2022-10-22T07:24:03;12.40;99.90
22153;DHT22;11242;50.536;12.688;2022-10-22T07:26:29;12.40;99.90
22153;DHT22;11242;50.536;12.688;2022-10-22T07:28:59;12.40;99.90
22153;DHT22;11242;50.536;12.688;2022-10-22T07:31:25;12.40;99.90
22153;DHT22;11242;50.536;12.688;2022-10-22T07:33:51;12.40;99.90
22153;DHT22;11242;50.536;12.688;2022-10-22T07:36:16;12.40;99.90
22153;DHT22;11242;50.536;12.688;2022-10-22T07:38:44;12.40;99.90
22153;DHT22;11242;50.536;12.688;2022-10-22T07:41:10;12.30;99.90
22153;DHT22;11242;50.536;12.688;2022-10-22T07:43:35;12.40;99.90
22153;DHT22;11242;50.536;12.688;2022-10-22T07:46:01;12.50;99.90
22153;DHT22;11242;50.536;12.688;2022-10-22T07:48:27;12.50;99.90
22153;DHT22;11242;50.536;12.688;2022-10-22T07:50:53;12.50;99.90
22153;DHT22;11242;50.536;12.688;2022-10-22T07:53:19;12.60;99.90
22153;DHT22;11242;50.536;12.688;2022-10-22T07:55:49;12.50;99.90
22153;DHT22;11242;50.536;12.688;2022-10-22T07:58:16;12.50;99.90
22153;DHT22;11242;50.536;12.688;2022-10-22T08:00:42;12.50;99.90
22153;DHT22;11242;50.536;12.688;2022-10-22T08:03:10;12.50;99.90
22153;DHT22;11242;50.536;12.688;2022-10-22T08:05:36;12.50;99.90
22153;DHT22;11242;50.536;12.688;2022-10-22T08:08:01;12.50;99.90
22153;DHT22;11242;50.536;12.688;2022-10-22T08:10:27;12.50;99.90
22153;DHT22;11242;50.536;12.688;2022-10-22T08:12:52;12.50;99.90
22153;DHT22;11242;50.536;12.688;2022-10-22T08:15:18;12.50;99.90
22153;DHT22;11242;50.536;12.688;2022-10-22T08:17:43;12.50;99.90
22153;DHT22;11242;50.536;12.688;2022-10-22T08:20:09;12.60;99.90
22153;DHT22;11242;50.536;12.688;2022-10-22T08:22:35;12.80;99.90
22153;DHT22;11242;50.536;12.688;2022-10-22T08:25:01;12.80;99.90
22153;DHT22;11242;50.536;12.688;2022-10-22T08:27:26;12.90;99.90
22153;DHT22;11242;50.536;12.688;2022-10-22T08:29:52;13.10;99.90
22153;DHT22;11242;50.536;12.688;2022-10-22T08:32:17;13.40;99.90
22153;DHT22;11242;50.536;12.688;2022-10-22T08:34:43;13.70;99.90
22153;DHT22;11242;50.536;12.688;2022-10-22T08:37:08;13.90;99.90
22153;DHT22;11242;50.536;12.688;2022-10-22T08:39:39;14.30;99.90
22153;DHT22;11242;50.536;12.688;2022-10-22T08:42:12;14.80;99.90
22153;DHT22;11242;50.536;12.688;2022-10-22T08:44:59;15.30;99.90
22153;DHT22;11242;50.536;12.688;2022-10-22T08:48:08;15.60;99.90
22153;DHT22;11242;50.536;12.688;2022-10-22T08:50:42;16.00;99.90
22153;DHT22;11242;50.536;12.688;2022-10-22T08:53:17;15.80;99.90
22153;DHT22;11242;50.536;12.688;2022-10-22T08:55:44;15.60;99.90
22153;DHT22;11242;50.536;12.688;2022-10-22T09:01:12;15.20;99.90
22153;DHT22;11242;50.536;12.688;2022-10-22T09:03:49;15.00;99.90
22153;DHT22;11242;50.536;12.688;2022-10-22T09:06:23;14.70;99.90
22153;DHT22;11242;50.536;12.688;2022-10-22T09:08:50;14.50;99.90
22153;DHT22;11242;50.536;12.688;2022-10-22T09:11:35;14.40;99.90
22153;DHT22;11242;50.536;12.688;2022-10-22T09:14:02;14.40;99.90
22153;DHT22;11242;50.536;12.688;2022-10-22T09:16:50;14.30;99.90
22153;DHT22;11242;50.536;12.688;2022-10-22T09:19:47;14.20;99.90
22153;DHT22;11242;50.536;12.688;2022-10-22T09:24:48;13.90;99.90
22153;DHT22;11242;50.536;12.688;2022-10-22T09:27:19;14.00;99.90
22153;DHT22;11242;50.536;12.688;2022-10-22T09:29:46;13.90;99.90
22153;DHT22;11242;50.536;12.688;2022-10-22T09:32:13;14.00;99.90
22153;DHT22;11242;50.536;12.688;2022-10-22T09:34:39;14.00;99.90
22153;DHT22;11242;50.536;12.688;2022-10-22T09:37:07;14.30;99.90
22153;DHT22;11242;50.536;12.688;2022-10-22T09:39:37;14.60;99.90
22153;DHT22;11242;50.536;12.688;2022-10-22T09:42:04;14.50;99.90
22153;DHT22;11242;50.536;12.688;2022-10-22T09:44:33;14.60;99.90
22153;DHT22;11242;50.536;12.688;2022-10-22T09:47:06;14.60;99.90
22153;DHT22;11242;50.536;12.688;2022-10-22T09:49:34;14.90;99.90
22153;DHT22;11242;50.536;12.688;2022-10-22T09:52:01;15.20;99.90
22153;DHT22;11242;50.536;12.688;2022-10-22T09:54:37;15.30;99.90
22153;DHT22;11242;50.536;12.688;2022-10-22T09:57:15;15.40;99.90
22153;DHT22;11242;50.536;12.688;2022-10-22T09:59:43;15.70;99.90
22153;DHT22;11242;50.536;12.688;2022-10-22T10:02:20;15.90;99.90
22153;DHT22;11242;50.536;12.688;2022-10-22T10:04:49;15.90;99.90
22153;DHT22;11242;50.536;12.688;2022-10-22T10:07:18;15.80;99.90
22153;DHT22;11242;50.536;12.688;2022-10-22T10:09:44;15.80;99.90
22153;DHT22;11242;50.536;12.688;2022-10-22T10:12:35;15.90;99.90
22153;DHT22;11242;50.536;12.688;2022-10-22T10:17:50;16.30;99.90
22153;DHT22;11242;50.536;12.688;2022-10-22T10:20:30;16.50;99.90
22153;DHT22;11242;50.536;12.688;2022-10-22T10:26:30;16.70;99.90
22153;DHT22;11242;50.536;12.688;2022-10-22T10:31:40;16.60;99.90
22153;DHT22;11242;50.536;12.688;2022-10-22T10:34:28;16.60;99.90
22153;DHT22;11242;50.536;12.688;2022-10-22T10:37:12;16.50;99.90
22153;DHT22;11242;50.536;12.688;2022-10-22T10:42:22;16.50;99.90
22153;DHT22;11242;50.536;12.688;2022-10-22T10:50:25;16.40;99.90
22153;DHT22;11242;50.536;12.688;2022-10-22T10:59:09;16.50;99.90
22153;DHT22;11242;50.536;12.688;2022-10-22T11:01:55;16.50;99.90
22153;DHT22;11242;50.536;12.688;2022-10-22T11:05:21;16.50;99.90
22153;DHT22;11242;50.536;12.688;2022-10-22T11:10:28;16.20;99.90
22153;DHT22;11242;50.536;12.688;2022-10-22T11:15:56;16.10;99.90
22153;DHT22;11242;50.536;12.688;2022-10-22T11:18:30;16.00;99.90
22153;DHT22;11242;50.536;12.688;2022-10-22T11:21:13;16.10;99.90
22153;DHT22;11242;50.536;12.688;2022-10-22T11:23:49;16.00;99.90
22153;DHT22;11242;50.536;12.688;2022-10-22T11:26:36;16.00;99.90
22153;DHT22;11242;50.536;12.688;2022-10-22T11:29:08;15.90;99.90
22153;DHT22;11242;50.536;12.688;2022-10-22T11:31:36;15.90;99.90
22153;DHT22;11242;50.536;12.688;2022-10-22T11:34:17;15.90;99.90
22153;DHT22;11242;50.536;12.688;2022-10-22T11:36:45;15.90;99.90
22153;DHT22;11242;50.536;12.688;2022-10-22T11:42:02;16.10;99.90
22153;DHT22;11242;50.536;12.688;2022-10-22T11:44:28;16.00;99.90
22153;DHT22;11242;50.536;12.688;2022-10-22T11:47:08;15.90;99.90
22153;DHT22;11242;50.536;12.688;2022-10-22T11:49:45;15.90;99.90
22153;DHT22;11242;50.536;12.688;2022-10-22T11:52:26;15.80;99.90
22153;DHT22;11242;50.536;12.688;2022-10-22T11:54:54;16.00;99.90
22153;DHT22;11242;50.536;12.688;2022-10-22T11:57:25;15.90;99.90
22153;DHT22;11242;50.536;12.688;2022-10-22T11:59:57;15.70;99.90
22153;DHT22;11242;50.536;12.688;2022-10-22T12:07:50;15.70;99.90
22153;DHT22;11242;50.536;12.688;2022-10-22T12:10:21;15.80;99.90
22153;DHT22;11242;50.536;12.688;2022-10-22T12:12:55;15.90;99.90
22153;DHT22;11242;50.536;12.688;2022-10-22T12:15:24;15.90;99.90
22153;DHT22;11242;50.536;12.688;2022-10-22T12:17:55;16.00;99.90
22153;DHT22;11242;50.536;12.688;2022-10-22T12:20:24;16.10;99.90
22153;DHT22;11242;50.536;12.688;2022-10-22T12:22:51;16.10;99.90
22153;DHT22;11242;50.536;12.688;2022-10-22T12:25:25;16.20;99.90
22153;DHT22;11242;50.536;12.688;2022-10-22T12:27:53;16.20;99.90
22153;DHT22;11242;50.536;12.688;2022-10-22T12:30:22;16.10;99.90
22153;DHT22;11242;50.536;12.688;2022-10-22T12:32:52;16.10;99.90
22153;DHT22;11242;50.536;12.688;2022-10-22T12:35:21;16.20;99.90
22153;DHT22;11242;50.536;12.688;2022-10-22T12:37:49;16.20;99.90
22153;DHT22;11242;50.536;12.688;2022-10-22T12:40:25;16.20;99.90
22153;DHT22;11242;50.536;12.688;2022-10-22T12:43:09;16.20;99.90
22153;DHT22;11242;50.536;12.688;2022-10-22T12:45:36;16.30;99.90
22153;DHT22;11242;50.536;12.688;2022-10-22T12:48:05;16.30;99.90
22153;DHT22;11242;50.536;12.688;2022-10-22T12:50:39;16.30;99.90
22153;DHT22;11242;50.536;12.688;2022-10-22T12:53:13;16.30;99.90
22153;DHT22;11242;50.536;12.688;2022-10-22T12:55:39;16.30;99.90
22153;DHT22;11242;50.536;12.688;2022-10-22T12:58:06;16.30;99.90
22153;DHT22;11242;50.536;12.688;2022-10-22T13:00:34;16.50;99.90
22153;DHT22;11242;50.536;12.688;2022-10-22T13:03:04;16.40;99.90
22153;DHT22;11242;50.536;12.688;2022-10-22T13:05:32;16.30;99.90
22153;DHT22;11242;50.536;12.688;2022-10-22T13:08:12;16.30;99.90
22153;DHT22;11242;50.536;12.688;2022-10-22T13:10:49;16.30;99.90
22153;DHT22;11242;50.536;12.688;2022-10-22T13:18:43;15.90;99.90
22153;DHT22;11242;50.536;12.688;2022-10-22T13:21:47;15.80;99.90
22153;DHT22;11242;50.536;12.688;2022-10-22T13:24:23;15.60;99.90
22153;DHT22;11242;50.536;12.688;2022-10-22T13:26:51;15.40;99.90
22153;DHT22;11242;50.536;12.688;2022-10-22T13:29:19;15.40;99.90
22153;DHT22;11242;50.536;12.688;2022-10-22T13:31:48;15.30;99.90
22153;DHT22;11242;50.536;12.688;2022-10-22T13:34:19;15.10;99.90
22153;DHT22;11242;50.536;12.688;2022-10-22T13:36:45;15.10;99.90
22153;DHT22;11242;50.536;12.688;2022-10-22T13:39:23;15.10;99.90
22153;DHT22;11242;50.536;12.688;2022-10-22T13:41:49;15.10;99.90
22153;DHT22;11242;50.536;12.688;2022-10-22T13:44:16;15.20;99.90
22153;DHT22;11242;50.536;12.688;2022-10-22T13:46:43;15.30;99.90
22153;DHT22;11242;50.536;12.688;2022-10-22T13:49:15;15.40;99.90
22153;DHT22;11242;50.536;12.688;2022-10-22T13:51:41;15.40;99.90
22153;DHT22;11242;50.536;12.688;2022-10-22T13:54:17;15.30;99.90
22153;DHT22;11242;50.536;12.688;2022-10-22T13:56:43;15.10;99.90
22153;DHT22;11242;50.536;12.688;2022-10-22T13:59:09;15.00;99.90
22153;DHT22;11242;50.536;12.688;2022-10-22T14:01:36;14.90;99.90
22153;DHT22;11242;50.536;12.688;2022-10-22T14:04:04;14.70;99.90
22153;DHT22;11242;50.536;12.688;2022-10-22T14:06:31;14.70;99.90
22153;DHT22;11242;50.536;12.688;2022-10-22T14:09:01;14.60;99.90
22153;DHT22;11242;50.536;12.688;2022-10-22T14:11:27;14.70;99.90
22153;DHT22;11242;50.536;12.688;2022-10-22T14:13:53;14.60;99.90
22153;DHT22;11242;50.536;12.688;2022-10-22T14:16:22;14.60;99.90
22153;DHT22;11242;50.536;12.688;2022-10-22T14:18:49;14.50;99.90
22153;DHT22;11242;50.536;12.688;2022-10-22T14:21:15;14.40;99.90
22153;DHT22;11242;50.536;12.688;2022-10-22T14:23:44;14.40;99.90
22153;DHT22;11242;50.536;12.688;2022-10-22T14:26:21;14.40;99.90
22153;DHT22;11242;50.536;12.688;2022-10-22T14:28:46;14.30;99.90
22153;DHT22;11242;50.536;12.688;2022-10-22T14:31:13;14.20;99.90
22153;DHT22;11242;50.536;12.688;2022-10-22T14:33:39;14.20;99.90
22153;DHT22;11242;50.536;12.688;2022-10-22T14:36:05;14.20;99.90
22153;DHT22;11242;50.536;12.688;2022-10-22T14:38:30;14.20;99.90
22153;DHT22;11242;50.536;12.688;2022-10-22T14:40:57;14.20;99.90
22153;DHT22;11242;50.536;12.688;2022-10-22T14:43:28;14.20;99.90
22153;DHT22;11242;50.536;12.688;2022-10-22T14:45:56;14.30;99.90
22153;DHT22;11242;50.536;12.688;2022-10-22T14:48:23;14.50;99.90
22153;DHT22;11242;50.536;12.688;2022-10-22T14:50:48;14.60;99.90
22153;DHT22;11242;50.536;12.688;2022-10-22T14:53:14;14.70;99.90
22153;DHT22;11242;50.536;12.688;2022-10-22T14:55:41;14.60;99.90
22153;DHT22;11242;50.536;12.688;2022-10-22T14:58:11;14.50;99.90
22153;DHT22;11242;50.536;12.688;2022-10-22T15:00:40;14.40;99.90
22153;DHT22;11242;50.536;12.688;2022-10-22T15:03:06;14.30;99.90
22153;DHT22;11242;50.536;12.688;2022-10-22T15:05:31;14.20;99.90
22153;DHT22;11242;50.536;12.688;2022-10-22T15:07:57;14.20;99.90
22153;DHT22;11242;50.536;12.688;2022-10-22T15:10:24;14.00;99.90
22153;DHT22;11242;50.536;12.688;2022-10-22T15:12:49;13.90;99.90
22153;DHT22;11242;50.536;12.688;2022-10-22T15:15:15;13.80;99.90
22153;DHT22;11242;50.536;12.688;2022-10-22T15:17:40;13.70;99.90
22153;DHT22;11242;50.536;12.688;2022-10-22T15:20:06;13.60;99.90
22153;DHT22;11242;50.536;12.688;2022-10-22T15:22:33;13.50;99.90
22153;DHT22;11242;50.536;12.688;2022-10-22T15:25:04;13.50;99.90
22153;DHT22;11242;50.536;12.688;2022-10-22T15:27:30;13.30;99.90
22153;DHT22;11242;50.536;12.688;2022-10-22T15:29:56;13.20;99.90
22153;DHT22;11242;50.536;12.688;2022-10-22T15:32:24;13.20;99.90
22153;DHT22;11242;50.536;12.688;2022-10-22T15:34:52;13.10;99.90
22153;DHT22;11242;50.536;12.688;2022-10-22T15:37:19;13.00;99.90
22153;DHT22;11242;50.536;12.688;2022-10-22T15:39:44;12.90;99.90
22153;DHT22;11242;50.536;12.688;2022-10-22T15:42:10;12.70;99.90
22153;DHT22;11242;50.536;12.688;2022-10-22T15:44:36;12.60;99.90
22153;DHT22;11242;50.536;12.688;2022-10-22T15:47:04;12.60;99.90
22153;DHT22;11242;50.536;12.688;2022-10-22T15:49:33;12.50;99.90
22153;DHT22;11242;50.536;12.688;2022-10-22T15:51:59;12.40;99.90
22153;DHT22;11242;50.536;12.688;2022-10-22T15:54:28;12.30;99.90
22153;DHT22;11242;50.536;12.688;2022-10-22T15:56:57;12.30;99.90
22153;DHT22;11242;50.536;12.688;2022-10-22T15:59:24;12.20;99.90
22153;DHT22;11242;50.536;12.688;2022-10-22T16:01:49;12.10;99.90
22153;DHT22;11242;50.536;12.688;2022-10-22T16:04:15;12.00;99.90
22153;DHT22;11242;50.536;12.688;2022-10-22T16:06:44;11.90;99.90
22153;DHT22;11242;50.536;12.688;2022-10-22T16:09:15;11.80;99.90
22153;DHT22;11242;50.536;12.688;2022-10-22T16:11:42;11.70;99.90
22153;DHT22;11242;50.536;12.688;2022-10-22T16:14:10;11.60;99.90
22153;DHT22;11242;50.536;12.688;2022-10-22T16:16:36;11.50;99.90
22153;DHT22;11242;50.536;12.688;2022-10-22T16:19:04;11.50;99.90
22153;DHT22;11242;50.536;12.688;2022-10-22T16:21:29;11.50;99.90
22153;DHT22;11242;50.536;12.688;2022-10-22T16:23:55;11.50;99.90
22153;DHT22;11242;50.536;12.688;2022-10-22T16:26:20;11.50;99.90
22153;DHT22;11242;50.536;12.688;2022-10-22T16:28:47;11.60;99.90
22153;DHT22;11242;50.536;12.688;2022-10-22T16:31:15;11.60;99.90
22153;DHT22;11242;50.536;12.688;2022-10-22T16:33:41;11.60;99.90
22153;DHT22;11242;50.536;12.688;2022-10-22T16:36:11;11.50;99.90